sensor_id;sensor_type;location;lat;lon;timestamp;P1;durP1;ratioP1;P2;durP2;ratioP2
6941;SDS011;3510;43.200;27.920;2023-01-01T07:24:17;40.80;;;27.70;;
6941;SDS011;3510;43.200;27.920;2023-01-01T07:26:44;43.80;;;29.73;;
6941;SDS011;3510;43.200;27.920;2023-01-01T07:29:11;41.90;;;29.70;;
6941;SDS011;3510;43.200;27.920;2023-01-01T07:31:39;39.55;;;28.23;;
6941;SDS011;3510;43.200;27.920;2023-01-01T07:34:11;40.35;;;29.98;;
6941;SDS011;3510;43.200;27.920;2023-01-01T07:36:40;40.30;;;29.67;;
6941;SDS011;3510;43.200;27.920;2023-01-01T07:56:16;32.67;;;23.30;;
6941;SDS011;3510;43.200;27.920;2023-01-01T07:58:43;31.63;;;23.20;;
6941;SDS011;3510;43.200;27.920;2023-01-01T08:01:12;33.53;;;19.67;;
6941;SDS011;3510;43.200;27.920;2023-01-01T08:03:40;35.53;;;19.57;;
6941;SDS011;3510;43.200;27.920;2023-01-01T08:06:08;30.37;;;18.30;;
6941;SDS011;3510;43.200;27.920;2023-01-01T08:08:37;30.03;;;18.30;;
6941;SDS011;3510;43.200;27.920;2023-01-01T08:11:04;38.53;;;21.47;;
6941;SDS011;3510;43.200;27.920;2023-01-01T08:13:31;34.90;;;20.47;;
6941;SDS011;3510;43.200;27.920;2023-01-01T08:15:58;33.03;;;20.83;;
6941;SDS011;3510;43.200;27.920;2023-01-01T08:18:28;35.37;;;21.57;;
6941;SDS011;3510;43.200;27.920;2023-01-01T08:20:55;40.30;;;26.63;;
6941;SDS011;3510;43.200;27.920;2023-01-01T08:23:24;29.10;;;16.80;;
6941;SDS011;3510;43.200;27.920;2023-01-01T08:25:52;37.40;;;20.43;;
6941;SDS011;3510;43.200;27.920;2023-01-01T08:28:23;34.83;;;19.47;;
6941;SDS011;3510;43.200;27.920;2023-01-01T08:30:53;40.07;;;27.40;;
6941;SDS011;3510;43.200;27.920;2023-01-01T08:33:34;43.20;;;28.53;;
6941;SDS011;3510;43.200;27.920;2023-01-01T08:36:05;39.50;;;24.50;;
6941;SDS011;3510;43.200;27.920;2023-01-01T08:38:46;45.73;;;32.10;;
6941;SDS011;3510;43.200;27.920;2023-01-01T08:57:20;41.53;;;24.67;;
6941;SDS011;3510;43.200;27.920;2023-01-01T09:00:03;40.90;;;23.93;;
6941;SDS011;3510;43.200;27.920;2023-01-01T09:02:45;40.03;;;23.13;;
6941;SDS011;3510;43.200;27.920;2023-01-01T09:05:26;30.60;;;17.23;;
6941;SDS011;3510;43.200;27.920;2023-01-01T09:08:07;31.20;;;19.40;;
6941;SDS011;3510;43.200;27.920;2023-01-01T09:10:51;31.47;;;23.97;;
6941;SDS011;3510;43.200;27.920;2023-01-01T09:29:13;26.97;;;18.10;;
6941;SDS011;3510;43.200;27.920;2023-01-01T09:31:54;21.10;;;14.67;;
6941;SDS011;3510;43.200;27.920;2023-01-01T09:34:34;28.77;;;17.20;;
6941;SDS011;3510;43.200;27.920;2023-01-01T09:37:01;21.87;;;16.17;;
6941;SDS011;3510;43.200;27.920;2023-01-01T09:39:29;19.63;;;15.60;;
6941;SDS011;3510;43.200;27.920;2023-01-01T09:42:18;26.60;;;18.07;;
6941;SDS011;3510;43.200;27.920;2023-01-01T09:51:45;25.47;;;19.10;;
6941;SDS011;3510;43.200;27.920;2023-01-01T09:54:20;27.07;;;18.33;;
6941;SDS011;3510;43.200;27.920;2023-01-01T09:57:10;25.90;;;17.13;;
6941;SDS011;3510;43.200;27.920;2023-01-01T09:59:53;27.57;;;18.13;;
6941;SDS011;3510;43.200;27.920;2023-01-01T10:02:26;30.77;;;21.87;;
6941;SDS011;3510;43.200;27.920;2023-01-01T10:05:10;37.90;;;23.47;;
6941;SDS011;3510;43.200;27.920;2023-01-01T10:07:49;28.87;;;21.40;;
6941;SDS011;3510;43.200;27.920;2023-01-01T10:10:27;31.30;;;21.80;;
6941;SDS011;3510;43.200;27.920;2023-01-01T10:13:02;29.73;;;20.93;;
6941;SDS011;3510;43.200;27.920;2023-01-01T10:15:39;23.73;;;17.37;;
6941;SDS011;3510;43.200;27.920;2023-01-01T10:18:16;25.27;;;17.43;;
6941;SDS011;3510;43.200;27.920;2023-01-01T10:20:51;23.90;;;17.50;;
6941;SDS011;3510;43.200;27.920;2023-01-01T10:23:27;24.13;;;17.00;;
6941;SDS011;3510;43.200;27.920;2023-01-01T10:25:59;23.10;;;16.67;;
6941;SDS011;3510;43.200;27.920;2023-01-01T10:38:37;18.02;;;13.80;;
6941;SDS011;3510;43.200;27.920;2023-01-01T10:41:06;17.13;;;12.83;;
6941;SDS011;3510;43.200;27.920;2023-01-01T10:43:37;15.97;;;13.00;;
6941;SDS011;3510;43.200;27.920;2023-01-01T10:46:04;16.03;;;12.60;;
6941;SDS011;3510;43.200;27.920;2023-01-01T10:48:32;12.13;;;10.80;;
6941;SDS011;3510;43.200;27.920;2023-01-01T10:51:01;17.43;;;14.00;;
6941;SDS011;3510;43.200;27.920;2023-01-01T11:03:32;19.73;;;16.20;;
6941;SDS011;3510;43.200;27.920;2023-01-01T11:08:49;22.13;;;17.33;;
6941;SDS011;3510;43.200;27.920;2023-01-01T11:11:24;22.88;;;18.70;;
6941;SDS011;3510;43.200;27.920;2023-01-01T11:13:54;21.17;;;17.15;;
6941;SDS011;3510;43.200;27.920;2023-01-01T11:16:23;21.33;;;17.05;;
6941;SDS011;3510;43.200;27.920;2023-01-01T11:18:52;18.83;;;14.88;;
6941;SDS011;3510;43.200;27.920;2023-01-01T11:21:27;18.30;;;13.75;;
6941;SDS011;3510;43.200;27.920;2023-01-01T11:24:08;19.23;;;13.75;;
6941;SDS011;3510;43.200;27.920;2023-01-01T11:26:43;14.60;;;12.68;;
6941;SDS011;3510;43.200;27.920;2023-01-01T11:29:22;14.82;;;11.55;;
6941;SDS011;3510;43.200;27.920;2023-01-01T11:31:51;12.35;;;11.23;;
6941;SDS011;3510;43.200;27.920;2023-01-01T11:34:26;16.38;;;11.73;;
6941;SDS011;3510;43.200;27.920;2023-01-01T11:39:47;13.80;;;10.20;;
6941;SDS011;3510;43.200;27.920;2023-01-01T11:45:20;12.80;;;10.70;;
6941;SDS011;3510;43.200;27.920;2023-01-01T11:47:54;12.43;;;10.77;;
6941;SDS011;3510;43.200;27.920;2023-01-01T11:50:26;12.90;;;10.90;;
6941;SDS011;3510;43.200;27.920;2023-01-01T11:52:55;12.27;;;10.57;;
6941;SDS011;3510;43.200;27.920;2023-01-01T11:55:31;11.43;;;9.80;;
6941;SDS011;3510;43.200;27.920;2023-01-01T11:58:08;13.30;;;10.57;;
6941;SDS011;3510;43.200;27.920;2023-01-01T12:00:41;10.10;;;9.10;;
6941;SDS011;3510;43.200;27.920;2023-01-01T12:03:11;11.70;;;9.73;;
6941;SDS011;3510;43.200;27.920;2023-01-01T12:05:49;11.67;;;9.73;;
6941;SDS011;3510;43.200;27.920;2023-01-01T12:08:20;15.07;;;11.23;;
6941;SDS011;3510;43.200;27.920;2023-01-01T12:10:54;12.60;;;10.03;;
6941;SDS011;3510;43.200;27.920;2023-01-01T12:13:27;14.17;;;10.10;;
6941;SDS011;3510;43.200;27.920;2023-01-01T12:16:01;16.80;;;10.00;;
6941;SDS011;3510;43.200;27.920;2023-01-01T12:18:36;10.87;;;8.97;;
6941;SDS011;3510;43.200;27.920;2023-01-01T12:21:13;9.90;;;8.90;;
6941;SDS011;3510;43.200;27.920;2023-01-01T12:23:44;13.27;;;8.53;;
6941;SDS011;3510;43.200;27.920;2023-01-01T12:26:14;9.17;;;8.27;;
6941;SDS011;3510;43.200;27.920;2023-01-01T12:28:54;8.60;;;7.73;;
6941;SDS011;3510;43.200;27.920;2023-01-01T12:31:37;9.30;;;7.70;;
6941;SDS011;3510;43.200;27.920;2023-01-01T12:34:10;8.53;;;7.80;;
6941;SDS011;3510;43.200;27.920;2023-01-01T12:36:56;8.60;;;7.77;;
6941;SDS011;3510;43.200;27.920;2023-01-01T12:42:34;10.30;;;9.20;;
6941;SDS011;3510;43.200;27.920;2023-01-01T12:48:07;7.30;;;6.70;;
6941;SDS011;3510;43.200;27.920;2023-01-01T12:50:53;7.70;;;7.10;;
6941;SDS011;3510;43.200;27.920;2023-01-01T12:53:30;7.57;;;6.97;;
6941;SDS011;3510;43.200;27.920;2023-01-01T12:58:56;10.10;;;7.10;;
6941;SDS011;3510;43.200;27.920;2023-01-01T13:01:29;9.33;;;7.17;;
6941;SDS011;3510;43.200;27.920;2023-01-01T13:03:58;7.57;;;6.87;;
6941;SDS011;3510;43.200;27.920;2023-01-01T13:06:27;7.63;;;7.03;;
6941;SDS011;3510;43.200;27.920;2023-01-01T13:09:01;8.10;;;7.00;;
6941;SDS011;3510;43.200;27.920;2023-01-01T13:11:32;7.83;;;7.13;;
6941;SDS011;3510;43.200;27.920;2023-01-01T13:14:01;7.37;;;6.77;;
6941;SDS011;3510;43.200;27.920;2023-01-01T13:16:33;6.67;;;6.17;;
6941;SDS011;3510;43.200;27.920;2023-01-01T13:19:03;8.53;;;6.03;;
6941;SDS011;3510;43.200;27.920;2023-01-01T13:21:30;7.77;;;7.07;;
6941;SDS011;3510;43.200;27.920;2023-01-01T13:24:02;7.13;;;6.53;;
6941;SDS011;3510;43.200;27.920;2023-01-01T13:26:39;7.27;;;6.67;;
6941;SDS011;3510;43.200;27.920;2023-01-01T13:32:02;8.20;;;7.43;;
6941;SDS011;3510;43.200;27.920;2023-01-01T13:34:41;7.13;;;6.63;;
6941;SDS011;3510;43.200;27.920;2023-01-01T13:37:27;8.17;;;7.37;;
6941;SDS011;3510;43.200;27.920;2023-01-01T13:39:56;10.20;;;8.30;;
6941;SDS011;3510;43.200;27.920;2023-01-01T13:42:37;8.07;;;7.30;;
6941;SDS011;3510;43.200;27.920;2023-01-01T13:45:06;11.13;;;8.20;;
6941;SDS011;3510;43.200;27.920;2023-01-01T13:47:55;10.23;;;7.53;;
6941;SDS011;3510;43.200;27.920;2023-01-01T13:50:33;7.53;;;6.93;;
6941;SDS011;3510;43.200;27.920;2023-01-01T13:53:09;7.93;;;7.23;;
6941;SDS011;3510;43.200;27.920;2023-01-01T13:56:02;7.80;;;7.13;;
6941;SDS011;3510;43.200;27.920;2023-01-01T13:58:53;8.40;;;7.07;;
6941;SDS011;3510;43.200;27.920;2023-01-01T14:01:43;8.13;;;5.80;;
6941;SDS011;3510;43.200;27.920;2023-01-01T14:04:30;7.47;;;6.80;;
6941;SDS011;3510;43.200;27.920;2023-01-01T14:07:06;9.23;;;6.63;;
6941;SDS011;3510;43.200;27.920;2023-01-01T14:09:42;6.33;;;5.83;;
6941;SDS011;3510;43.200;27.920;2023-01-01T14:42:12;5.67;;;5.27;;
6941;SDS011;3510;43.200;27.920;2023-01-01T14:44:42;6.70;;;6.10;;
6941;SDS011;3510;43.200;27.920;2023-01-01T14:47:15;9.97;;;7.07;;
6941;SDS011;3510;43.200;27.920;2023-01-01T14:49:50;7.77;;;6.17;;
6941;SDS011;3510;43.200;27.920;2023-01-01T14:52:20;7.13;;;6.50;;
6941;SDS011;3510;43.200;27.920;2023-01-01T14:54:50;5.97;;;5.37;;
6941;SDS011;3510;43.200;27.920;2023-01-01T14:57:19;6.17;;;5.50;;
6941;SDS011;3510;43.200;27.920;2023-01-01T14:59:50;6.80;;;6.20;;
6941;SDS011;3510;43.200;27.920;2023-01-01T15:02:20;6.83;;;6.13;;
6941;SDS011;3510;43.200;27.920;2023-01-01T15:08:21;8.27;;;7.53;;
6941;SDS011;3510;43.200;27.920;2023-01-01T15:10:49;7.07;;;6.37;;
6941;SDS011;3510;43.200;27.920;2023-01-01T15:13:17;6.83;;;6.23;;
6941;SDS011;3510;43.200;27.920;2023-01-01T15:15:48;6.73;;;6.13;;
6941;SDS011;3510;43.200;27.920;2023-01-01T15:18:33;6.70;;;6.10;;
6941;SDS011;3510;43.200;27.920;2023-01-01T15:21:02;8.87;;;6.17;;
6941;SDS011;3510;43.200;27.920;2023-01-01T15:23:34;9.37;;;7.27;;
6941;SDS011;3510;43.200;27.920;2023-01-01T15:26:05;12.60;;;6.67;;
6941;SDS011;3510;43.200;27.920;2023-01-01T15:28:33;8.30;;;7.33;;
6941;SDS011;3510;43.200;27.920;2023-01-01T15:31:02;11.30;;;7.10;;
6941;SDS011;3510;43.200;27.920;2023-01-01T15:33:29;8.87;;;7.00;;
6941;SDS011;3510;43.200;27.920;2023-01-01T15:35:57;9.10;;;7.77;;
6941;SDS011;3510;43.200;27.920;2023-01-01T15:38:28;7.83;;;6.70;;
6941;SDS011;3510;43.200;27.920;2023-01-01T15:41:01;10.00;;;6.77;;
6941;SDS011;3510;43.200;27.920;2023-01-01T15:44:05;8.17;;;7.27;;
6941;SDS011;3510;43.200;27.920;2023-01-01T15:46:33;7.43;;;6.73;;
6941;SDS011;3510;43.200;27.920;2023-01-01T15:49:01;10.27;;;8.13;;
6941;SDS011;3510;43.200;27.920;2023-01-01T15:51:28;8.87;;;7.97;;
6941;SDS011;3510;43.200;27.920;2023-01-01T15:53:56;8.43;;;7.60;;
6941;SDS011;3510;43.200;27.920;2023-01-01T15:56:26;9.27;;;8.37;;
6941;SDS011;3510;43.200;27.920;2023-01-01T15:58:57;9.13;;;8.00;;
6941;SDS011;3510;43.200;27.920;2023-01-01T16:01:26;11.00;;;8.40;;
6941;SDS011;3510;43.200;27.920;2023-01-01T16:04:00;9.73;;;8.83;;
6941;SDS011;3510;43.200;27.920;2023-01-01T16:06:32;9.30;;;8.40;;
6941;SDS011;3510;43.200;27.920;2023-01-01T16:09:10;9.17;;;8.10;;
6941;SDS011;3510;43.200;27.920;2023-01-01T16:11:39;10.07;;;8.87;;
6941;SDS011;3510;43.200;27.920;2023-01-01T16:14:08;11.60;;;9.20;;
6941;SDS011;3510;43.200;27.920;2023-01-01T16:16:36;9.40;;;7.53;;
6941;SDS011;3510;43.200;27.920;2023-01-01T16:19:05;16.00;;;8.63;;
6941;SDS011;3510;43.200;27.920;2023-01-01T16:21:39;8.53;;;7.80;;
6941;SDS011;3510;43.200;27.920;2023-01-01T16:24:08;9.13;;;8.23;;
6941;SDS011;3510;43.200;27.920;2023-01-01T16:26:40;9.70;;;8.77;;
6941;SDS011;3510;43.200;27.920;2023-01-01T16:29:08;10.37;;;8.43;;
6941;SDS011;3510;43.200;27.920;2023-01-01T16:31:35;12.53;;;8.40;;
6941;SDS011;3510;43.200;27.920;2023-01-01T16:34:03;10.47;;;9.37;;
6941;SDS011;3510;43.200;27.920;2023-01-01T16:36:31;15.03;;;9.43;;
6941;SDS011;3510;43.200;27.920;2023-01-01T16:39:12;9.87;;;7.63;;
6941;SDS011;3510;43.200;27.920;2023-01-01T16:57:17;14.70;;;11.33;;
6941;SDS011;3510;43.200;27.920;2023-01-01T16:59:58;18.70;;;12.57;;
6941;SDS011;3510;43.200;27.920;2023-01-01T17:02:38;22.23;;;13.40;;
6941;SDS011;3510;43.200;27.920;2023-01-01T17:05:19;17.20;;;12.83;;
6941;SDS011;3510;43.200;27.920;2023-01-01T17:07:47;15.90;;;11.97;;
6941;SDS011;3510;43.200;27.920;2023-01-01T17:38:22;22.10;;;13.50;;
6941;SDS011;3510;43.200;27.920;2023-01-01T17:41:03;21.20;;;13.50;;
6941;SDS011;3510;43.200;27.920;2023-01-01T17:43:32;19.27;;;12.77;;
6941;SDS011;3510;43.200;27.920;2023-01-01T17:46:15;17.00;;;12.53;;
6941;SDS011;3510;43.200;27.920;2023-01-01T17:48:44;24.27;;;13.93;;
6941;SDS011;3510;43.200;27.920;2023-01-01T18:00:17;23.67;;;15.63;;
6941;SDS011;3510;43.200;27.920;2023-01-01T18:02:58;40.40;;;26.17;;
6941;SDS011;3510;43.200;27.920;2023-01-01T18:05:39;68.63;;;41.33;;
6941;SDS011;3510;43.200;27.920;2023-01-01T18:08:20;57.47;;;37.17;;
6941;SDS011;3510;43.200;27.920;2023-01-01T18:11:01;55.73;;;32.47;;
6941;SDS011;3510;43.200;27.920;2023-01-01T18:22:20;48.17;;;31.03;;
6941;SDS011;3510;43.200;27.920;2023-01-01T18:24:47;51.33;;;30.83;;
6941;SDS011;3510;43.200;27.920;2023-01-01T18:27:28;43.47;;;28.40;;
6941;SDS011;3510;43.200;27.920;2023-01-01T18:30:09;49.43;;;30.53;;
6941;SDS011;3510;43.200;27.920;2023-01-01T18:32:51;42.57;;;27.87;;
6941;SDS011;3510;43.200;27.920;2023-01-01T18:35:34;42.50;;;26.17;;
6941;SDS011;3510;43.200;27.920;2023-01-01T18:38:01;45.10;;;27.03;;
6941;SDS011;3510;43.200;27.920;2023-01-01T18:40:28;41.00;;;24.77;;
6941;SDS011;3510;43.200;27.920;2023-01-01T18:43:13;38.47;;;27.07;;
6941;SDS011;3510;43.200;27.920;2023-01-01T18:45:47;33.77;;;22.03;;
6941;SDS011;3510;43.200;27.920;2023-01-01T18:48:29;33.10;;;22.73;;
6941;SDS011;3510;43.200;27.920;2023-01-01T19:16:26;51.23;;;32.73;;
6941;SDS011;3510;43.200;27.920;2023-01-01T19:19:10;65.93;;;37.40;;
6941;SDS011;3510;43.200;27.920;2023-01-01T19:21:47;59.67;;;34.93;;
6941;SDS011;3510;43.200;27.920;2023-01-01T19:24:29;60.50;;;37.30;;
6941;SDS011;3510;43.200;27.920;2023-01-01T19:27:31;56.27;;;34.40;;
6941;SDS011;3510;43.200;27.920;2023-01-01T19:30:17;78.83;;;40.13;;
6941;SDS011;3510;43.200;27.920;2023-01-01T19:36:03;76.70;;;41.97;;
6941;SDS011;3510;43.200;27.920;2023-01-01T19:38:44;81.67;;;43.90;;
6941;SDS011;3510;43.200;27.920;2023-01-01T19:44:13;95.27;;;52.63;;
6941;SDS011;3510;43.200;27.920;2023-01-01T19:46:54;124.13;;;63.10;;
6941;SDS011;3510;43.200;27.920;2023-01-01T19:49:35;156.33;;;83.27;;
6941;SDS011;3510;43.200;27.920;2023-01-01T19:58:17;103.40;;;64.13;;
6941;SDS011;3510;43.200;27.920;2023-01-01T20:00:46;116.67;;;59.13;;
6941;SDS011;3510;43.200;27.920;2023-01-01T20:03:27;129.77;;;83.10;;
6941;SDS011;3510;43.200;27.920;2023-01-01T20:06:08;143.50;;;74.53;;
6941;SDS011;3510;43.200;27.920;2023-01-01T20:08:51;170.57;;;93.13;;
6941;SDS011;3510;43.200;27.920;2023-01-01T20:11:19;150.00;;;81.30;;
6941;SDS011;3510;43.200;27.920;2023-01-01T20:45:09;47.90;;;27.37;;
6941;SDS011;3510;43.200;27.920;2023-01-01T20:47:46;44.67;;;27.00;;
6941;SDS011;3510;43.200;27.920;2023-01-01T20:52:59;42.70;;;27.10;;
6941;SDS011;3510;43.200;27.920;2023-01-01T20:55:47;43.47;;;29.53;;
6941;SDS011;3510;43.200;27.920;2023-01-01T21:08:00;47.43;;;29.80;;
6941;SDS011;3510;43.200;27.920;2023-01-01T21:10:27;51.90;;;26.80;;
6941;SDS011;3510;43.200;27.920;2023-01-01T21:12:54;48.50;;;32.50;;
6941;SDS011;3510;43.200;27.920;2023-01-01T21:15:21;47.03;;;32.50;;
6941;SDS011;3510;43.200;27.920;2023-01-01T21:17:48;47.30;;;29.23;;
6941;SDS011;3510;43.200;27.920;2023-01-01T21:20:16;45.97;;;31.47;;
6941;SDS011;3510;43.200;27.920;2023-01-01T21:22:43;47.37;;;26.10;;
6941;SDS011;3510;43.200;27.920;2023-01-01T21:25:15;43.03;;;29.27;;
6941;SDS011;3510;43.200;27.920;2023-01-01T21:27:48;40.57;;;24.73;;
6941;SDS011;3510;43.200;27.920;2023-01-01T21:30:17;37.73;;;25.90;;
6941;SDS011;3510;43.200;27.920;2023-01-01T21:32:45;32.87;;;21.67;;
6941;SDS011;3510;43.200;27.920;2023-01-01T21:35:15;36.33;;;23.77;;
6941;SDS011;3510;43.200;27.920;2023-01-01T21:37:45;38.90;;;24.07;;
6941;SDS011;3510;43.200;27.920;2023-01-01T21:40:32;37.70;;;23.97;;
6941;SDS011;3510;43.200;27.920;2023-01-01T21:43:20;34.90;;;24.60;;
6941;SDS011;3510;43.200;27.920;2023-01-01T21:45:51;32.23;;;20.07;;
6941;SDS011;3510;43.200;27.920;2023-01-01T21:48:21;31.23;;;21.13;;
6941;SDS011;3510;43.200;27.920;2023-01-01T21:50:52;33.57;;;24.13;;
6941;SDS011;3510;43.200;27.920;2023-01-01T21:53:22;32.50;;;21.53;;
6941;SDS011;3510;43.200;27.920;2023-01-01T21:55:54;38.97;;;22.30;;
6941;SDS011;3510;43.200;27.920;2023-01-01T21:58:22;39.77;;;23.53;;
6941;SDS011;3510;43.200;27.920;2023-01-01T22:01:15;34.33;;;26.10;;
6941;SDS011;3510;43.200;27.920;2023-01-01T22:03:48;34.30;;;22.80;;
6941;SDS011;3510;43.200;27.920;2023-01-01T22:06:17;31.47;;;21.83;;
6941;SDS011;3510;43.200;27.920;2023-01-01T22:08:44;36.77;;;22.60;;
6941;SDS011;3510;43.200;27.920;2023-01-01T22:11:18;33.93;;;22.37;;
6941;SDS011;3510;43.200;27.920;2023-01-01T22:13:50;38.10;;;22.23;;
6941;SDS011;3510;43.200;27.920;2023-01-01T22:16:17;35.97;;;22.83;;
6941;SDS011;3510;43.200;27.920;2023-01-01T22:18:48;38.43;;;22.50;;
6941;SDS011;3510;43.200;27.920;2023-01-01T22:21:15;33.20;;;21.57;;
6941;SDS011;3510;43.200;27.920;2023-01-01T22:23:43;35.77;;;23.27;;
6941;SDS011;3510;43.200;27.920;2023-01-01T22:26:20;33.53;;;21.57;;
6941;SDS011;3510;43.200;27.920;2023-01-01T22:28:49;38.93;;;23.93;;
6941;SDS011;3510;43.200;27.920;2023-01-01T22:31:21;36.37;;;23.53;;
6941;SDS011;3510;43.200;27.920;2023-01-01T22:34:07;39.00;;;24.23;;
6941;SDS011;3510;43.200;27.920;2023-01-01T22:36:42;42.10;;;25.87;;
6941;SDS011;3510;43.200;27.920;2023-01-01T22:39:11;39.23;;;26.03;;
6941;SDS011;3510;43.200;27.920;2023-01-01T22:41:42;43.90;;;30.93;;
6941;SDS011;3510;43.200;27.920;2023-01-01T22:44:09;43.80;;;26.60;;
6941;SDS011;3510;43.200;27.920;2023-01-01T22:46:51;42.97;;;27.83;;
6941;SDS011;3510;43.200;27.920;2023-01-01T22:49:33;46.87;;;25.37;;
6941;SDS011;3510;43.200;27.920;2023-01-01T22:52:17;49.33;;;28.07;;
6941;SDS011;3510;43.200;27.920;2023-01-01T22:54:57;49.13;;;33.73;;
6941;SDS011;3510;43.200;27.920;2023-01-01T22:57:40;55.03;;;30.53;;
6941;SDS011;3510;43.200;27.920;2023-01-01T23:00:20;45.53;;;30.83;;
6941;SDS011;3510;43.200;27.920;2023-01-01T23:02:47;41.00;;;28.90;;
6941;SDS011;3510;43.200;27.920;2023-01-01T23:05:28;41.40;;;30.10;;
6941;SDS011;3510;43.200;27.920;2023-01-01T23:07:57;43.33;;;23.77;;
6941;SDS011;3510;43.200;27.920;2023-01-01T23:10:24;41.00;;;24.47;;
6941;SDS011;3510;43.200;27.920;2023-01-01T23:13:06;41.73;;;30.10;;
6941;SDS011;3510;43.200;27.920;2023-01-01T23:15:47;37.43;;;23.07;;
6941;SDS011;3510;43.200;27.920;2023-01-01T23:18:29;38.90;;;27.97;;
6941;SDS011;3510;43.200;27.920;2023-01-01T23:20:58;36.50;;;27.43;;
6941;SDS011;3510;43.200;27.920;2023-01-01T23:23:26;38.87;;;26.33;;
6941;SDS011;3510;43.200;27.920;2023-01-01T23:25:55;37.10;;;26.90;;
6941;SDS011;3510;43.200;27.920;2023-01-01T23:31:21;34.13;;;20.17;;
6941;SDS011;3510;43.200;27.920;2023-01-01T23:33:52;30.27;;;23.37;;
6941;SDS011;3510;43.200;27.920;2023-01-01T23:36:21;28.70;;;17.90;;
6941;SDS011;3510;43.200;27.920;2023-01-01T23:39:02;27.37;;;20.90;;
6941;SDS011;3510;43.200;27.920;2023-01-01T23:41:29;32.83;;;25.30;;
6941;SDS011;3510;43.200;27.920;2023-01-01T23:43:59;34.43;;;24.50;;
6941;SDS011;3510;43.200;27.920;2023-01-01T23:46:40;35.20;;;26.30;;
6941;SDS011;3510;43.200;27.920;2023-01-01T23:49:07;30.67;;;23.83;;
6941;SDS011;3510;43.200;27.920;2023-01-01T23:51:47;24.90;;;20.40;;
6941;SDS011;3510;43.200;27.920;2023-01-01T23:54:15;25.27;;;19.37;;
6941;SDS011;3510;43.200;27.920;2023-01-01T23:56:42;26.73;;;21.07;;
6941;SDS011;3510;43.200;27.920;2023-01-01T23:59:31;21.43;;;18.07;;
